createdAt,value
2018-10-07T00:00:09.705Z,10.20
2018-10-07T00:04:50.298Z,10.20
2018-10-07T00:09:30.973Z,10.20
2018-10-07T00:14:10.804Z,10.10
2018-10-07T00:18:50.808Z,10.10
2018-10-07T00:23:30.919Z,10.10
2018-10-07T00:28:11.517Z,10.00
2018-10-07T00:32:52.247Z,9.90
2018-10-07T00:37:32.376Z,9.80
2018-10-07T00:42:12.545Z,9.70
2018-10-07T00:46:52.812Z,9.70
2018-10-07T00:51:32.756Z,9.60
2018-10-07T00:56:14.645Z,9.60
2018-10-07T01:00:54.866Z,9.60
2018-10-07T01:05:34.760Z,9.50
2018-10-07T01:10:14.778Z,9.50
2018-10-07T01:14:55.560Z,9.40
2018-10-07T01:19:36.361Z,9.40
2018-10-07T01:24:16.533Z,9.40
2018-10-07T01:28:56.394Z,9.40
2018-10-07T01:33:36.461Z,9.40
2018-10-07T01:38:16.526Z,9.30
2018-10-07T01:42:56.924Z,9.30
2018-10-07T01:47:36.561Z,9.20
2018-10-07T01:52:17.457Z,9.20
2018-10-07T01:56:57.206Z,9.20
2018-10-07T02:01:37.951Z,9.20
2018-10-07T02:06:17.929Z,9.20
2018-10-07T02:10:57.653Z,9.20
2018-10-07T02:15:37.396Z,9.30
2018-10-07T02:20:17.445Z,9.20
2018-10-07T02:24:57.416Z,9.20
2018-10-07T02:29:37.291Z,9.30
2018-10-07T02:34:17.704Z,9.20
2018-10-07T02:38:58.015Z,9.20
2018-10-07T02:43:37.989Z,9.20
2018-10-07T02:48:19.710Z,9.20
2018-10-07T02:53:00.305Z,9.20
2018-10-07T02:57:41.068Z,9.10
2018-10-07T03:02:21.969Z,9.00
2018-10-07T03:07:03.656Z,9.00
2018-10-07T03:11:43.700Z,9.10
2018-10-07T03:16:24.226Z,9.10
2018-10-07T03:21:04.999Z,9.20
2018-10-07T03:25:45.111Z,9.20
2018-10-07T03:30:25.552Z,9.20
2018-10-07T03:35:05.372Z,9.20
2018-10-07T03:39:45.210Z,9.30
2018-10-07T03:44:25.560Z,9.30
2018-10-07T03:49:05.665Z,9.30
2018-10-07T03:53:45.991Z,9.30
2018-10-07T03:58:25.933Z,9.30
2018-10-07T04:03:06.003Z,9.30
2018-10-07T04:07:46.457Z,9.30
2018-10-07T04:12:26.994Z,9.30
2018-10-07T04:17:07.328Z,9.30
2018-10-07T04:21:51.411Z,9.20
2018-10-07T04:26:31.605Z,9.30
2018-10-07T04:31:12.367Z,9.40
2018-10-07T04:35:52.120Z,9.50
2018-10-07T04:40:32.356Z,9.50
2018-10-07T04:45:12.338Z,9.60
2018-10-07T04:49:52.657Z,9.70
2018-10-07T04:54:32.880Z,9.80
2018-10-07T04:59:13.368Z,9.80
2018-10-07T05:03:53.551Z,9.90
2018-10-07T05:08:33.582Z,10.00
2018-10-07T05:13:17.897Z,10.10
2018-10-07T05:18:00.784Z,10.10
2018-10-07T05:22:42.160Z,10.20
2018-10-07T05:27:25.191Z,10.20
2018-10-07T05:32:07.552Z,10.20
2018-10-07T05:36:48.714Z,10.30
2018-10-07T05:41:29.240Z,10.30
2018-10-07T05:46:13.046Z,10.30
2018-10-07T05:50:54.497Z,10.30
2018-10-07T05:55:35.401Z,10.40
2018-10-07T06:00:16.325Z,10.50
2018-10-07T06:04:57.209Z,10.60
2018-10-07T06:09:37.824Z,10.70
2018-10-07T06:14:30.013Z,10.80
2018-10-07T06:19:10.604Z,10.80
2018-10-07T06:23:51.013Z,10.80
2018-10-07T06:28:31.064Z,10.90
2018-10-07T06:33:10.789Z,11.00
2018-10-07T06:37:51.108Z,11.00
2018-10-07T06:42:31.289Z,10.90
2018-10-07T06:47:10.997Z,11.00
2018-10-07T06:51:50.827Z,11.10
2018-10-07T06:56:30.896Z,11.20
2018-10-07T07:01:11.448Z,11.30
2018-10-07T07:05:51.436Z,11.50
2018-10-07T07:10:31.697Z,11.70
2018-10-07T07:15:12.372Z,11.90
2018-10-07T07:19:52.735Z,12.20
2018-10-07T07:24:32.741Z,12.50
2018-10-07T07:29:12.923Z,13.40
2018-10-07T07:33:53.580Z,13.60
2018-10-07T07:38:33.419Z,13.70
2018-10-07T07:43:14.133Z,14.00
2018-10-07T07:47:54.913Z,14.20
2018-10-07T07:52:35.086Z,14.40
2018-10-07T07:57:14.880Z,14.80
2018-10-07T08:01:54.674Z,16.80
2018-10-07T08:06:34.834Z,19.30
2018-10-07T08:11:14.738Z,20.60
2018-10-07T08:15:54.429Z,22.80
2018-10-07T08:20:34.379Z,24.30
2018-10-07T08:25:14.162Z,25.70
2018-10-07T08:29:55.037Z,25.80
2018-10-07T08:34:35.352Z,26.10
2018-10-07T08:39:15.189Z,26.80
2018-10-07T08:43:55.605Z,27.40
2018-10-07T08:48:35.992Z,27.50
2018-10-07T08:53:17.097Z,28.20
2018-10-07T08:57:57.618Z,28.60
2018-10-07T09:02:37.509Z,27.70
2018-10-07T09:07:17.498Z,26.50
2018-10-07T09:12:04.666Z,25.60
2018-10-07T09:16:51.100Z,26.70
2018-10-07T09:21:31.993Z,26.00
2018-10-07T09:26:12.436Z,24.50
2018-10-07T09:30:52.641Z,23.50
2018-10-07T09:35:32.652Z,23.00
2018-10-07T09:40:12.920Z,23.60
2018-10-07T09:44:52.975Z,24.60
2018-10-07T09:49:33.048Z,25.20
2018-10-07T09:54:13.275Z,26.70
2018-10-07T09:58:53.374Z,26.40
2018-10-07T10:03:34.305Z,26.40
2018-10-07T10:08:14.225Z,27.80
2018-10-07T10:12:56.603Z,30.20
2018-10-07T10:17:40.109Z,31.20
2018-10-07T10:22:28.849Z,31.80
2018-10-07T10:27:31.928Z,31.90
2018-10-07T10:32:48.298Z,31.70
2018-10-07T10:42:43.554Z,31.60
2018-10-07T10:47:33.523Z,31.10
2018-10-07T10:52:24.860Z,31.00
2018-10-07T10:57:09.533Z,30.90
2018-10-07T11:02:01.705Z,31.10
2018-10-07T11:08:56.020Z,31.20
2018-10-07T11:13:43.232Z,31.40
2018-10-07T11:18:34.382Z,31.20
2018-10-07T11:23:33.083Z,31.20
2018-10-07T11:32:53.376Z,31.50
2018-10-07T11:38:52.643Z,31.20
2018-10-07T11:44:40.197Z,30.20
2018-10-07T11:49:24.028Z,28.30
2018-10-07T11:54:09.224Z,28.20
2018-10-07T11:58:49.148Z,27.90
2018-10-07T12:03:29.065Z,26.20
2018-10-07T12:08:09.114Z,24.70
2018-10-07T12:12:49.007Z,24.00
2018-10-07T12:17:28.883Z,24.70
2018-10-07T12:22:09.104Z,25.90
2018-10-07T12:26:49.557Z,26.30
2018-10-07T12:31:30.163Z,27.20
2018-10-07T12:36:10.045Z,26.90
2018-10-07T12:40:49.854Z,26.90
2018-10-07T12:45:29.676Z,26.80
2018-10-07T12:50:09.489Z,26.00
2018-10-07T12:54:49.480Z,25.90
2018-10-07T12:59:29.308Z,25.10
2018-10-07T13:04:09.245Z,24.40
2018-10-07T13:08:49.201Z,23.70
2018-10-07T13:13:29.093Z,23.10
2018-10-07T13:18:08.974Z,23.00
2018-10-07T13:22:48.990Z,23.10
2018-10-07T13:27:28.930Z,24.50
2018-10-07T13:32:09.342Z,25.80
2018-10-07T13:36:49.243Z,25.80
2018-10-07T13:41:29.017Z,25.60
2018-10-07T13:46:09.389Z,25.40
2018-10-07T13:50:49.192Z,24.30
2018-10-07T13:55:29.425Z,23.10
2018-10-07T14:00:09.117Z,22.40
2018-10-07T14:04:49.045Z,21.80
2018-10-07T14:09:29.001Z,21.30
2018-10-07T14:14:08.775Z,21.00
2018-10-07T14:18:48.656Z,20.80
2018-10-07T14:23:28.417Z,20.60
2018-10-07T14:28:08.472Z,20.40
2018-10-07T14:32:48.925Z,20.20
2018-10-07T14:37:28.884Z,20.00
2018-10-07T14:42:08.648Z,19.90
2018-10-07T14:46:58.001Z,19.90
2018-10-07T14:51:57.983Z,19.80
2018-10-07T14:56:37.884Z,19.70
2018-10-07T15:01:17.948Z,19.60
2018-10-07T15:05:59.304Z,19.70
2018-10-07T15:10:39.733Z,19.70
2018-10-07T15:15:20.290Z,19.70
2018-10-07T15:20:00.485Z,19.70
2018-10-07T15:24:40.603Z,19.60
2018-10-07T15:29:20.475Z,19.30
2018-10-07T15:34:00.288Z,19.10
2018-10-07T15:38:40.389Z,18.90
2018-10-07T15:43:20.248Z,18.80
2018-10-07T15:48:00.094Z,18.60
2018-10-07T15:52:40.127Z,18.50
2018-10-07T15:57:20.206Z,18.40
2018-10-07T16:01:59.952Z,18.30
2018-10-07T16:06:39.832Z,18.20
2018-10-07T16:11:19.696Z,18.10
2018-10-07T16:16:00.221Z,17.90
2018-10-07T16:20:40.131Z,17.70
2018-10-07T16:25:19.976Z,17.60
2018-10-07T16:30:01.092Z,17.50
2018-10-07T16:34:40.864Z,17.40
2018-10-07T16:39:20.938Z,17.20
2018-10-07T16:44:01.583Z,17.10
2018-10-07T16:48:41.527Z,16.90
2018-10-07T16:53:21.722Z,16.70
2018-10-07T16:58:01.578Z,16.60
2018-10-07T17:02:42.668Z,16.50
2018-10-07T17:07:23.735Z,16.30
2018-10-07T17:12:04.033Z,16.20
2018-10-07T17:16:45.709Z,16.10
2018-10-07T17:21:25.582Z,15.90
2018-10-07T17:26:05.393Z,15.70
2018-10-07T17:30:45.240Z,15.60
2018-10-07T17:35:24.998Z,15.50
2018-10-07T17:40:04.985Z,15.40
2018-10-07T17:44:44.636Z,15.40
2018-10-07T17:49:24.475Z,15.30
2018-10-07T17:54:04.973Z,15.20
2018-10-07T17:58:44.900Z,15.10
2018-10-07T18:03:24.821Z,15.00
2018-10-07T18:08:04.660Z,14.90
2018-10-07T18:12:44.388Z,14.90
2018-10-07T18:17:24.009Z,14.80
2018-10-07T18:22:04.896Z,14.70
2018-10-07T18:26:44.774Z,14.50
2018-10-07T18:31:24.891Z,14.30
2018-10-07T18:36:05.468Z,14.20
2018-10-07T18:40:45.922Z,14.20
2018-10-07T18:45:26.419Z,14.10
2018-10-07T18:50:06.662Z,14.00
2018-10-07T18:54:47.098Z,14.00
2018-10-07T18:59:27.429Z,13.80
2018-10-07T19:04:08.033Z,13.70
2018-10-07T19:08:49.052Z,13.60
2018-10-07T19:13:29.341Z,13.50
2018-10-07T19:18:09.572Z,13.30
2018-10-07T19:22:49.860Z,13.20
2018-10-07T19:27:30.185Z,13.10
2018-10-07T19:32:10.586Z,13.00
2018-10-07T19:36:51.262Z,12.90
2018-10-07T19:41:31.523Z,12.80
2018-10-07T19:46:12.091Z,12.80
2018-10-07T19:50:52.600Z,12.70
2018-10-07T19:55:33.400Z,12.70
2018-10-07T20:00:13.785Z,12.60
2018-10-07T20:04:53.728Z,12.50
2018-10-07T20:09:33.741Z,12.50
2018-10-07T20:14:13.671Z,12.40
2018-10-07T20:18:54.009Z,12.30
2018-10-07T20:23:34.160Z,12.30
2018-10-07T20:28:15.178Z,12.30
2018-10-07T20:32:55.328Z,12.30
2018-10-07T20:37:35.380Z,12.30
2018-10-07T20:42:15.084Z,12.30
2018-10-07T20:46:55.860Z,12.30
2018-10-07T20:51:35.936Z,12.30
2018-10-07T20:56:16.359Z,12.30
2018-10-07T21:00:56.212Z,12.30
2018-10-07T21:05:36.257Z,12.10
2018-10-07T21:10:16.204Z,11.90
2018-10-07T21:14:57.961Z,11.90
2018-10-07T21:19:39.112Z,11.70
2018-10-07T21:24:19.780Z,11.70
2018-10-07T21:29:00.538Z,11.60
2018-10-07T21:33:40.652Z,11.50
2018-10-07T21:38:20.917Z,11.40
2018-10-07T21:43:01.380Z,11.20
2018-10-07T21:47:41.417Z,11.10
2018-10-07T21:52:21.855Z,11.10
2018-10-07T21:57:01.618Z,11.10
2018-10-07T22:01:42.000Z,11.00
2018-10-07T22:06:22.428Z,11.00
2018-10-07T22:11:04.101Z,10.90
2018-10-07T22:15:43.998Z,10.90
2018-10-07T22:20:24.575Z,10.90
2018-10-07T22:25:05.636Z,10.80
2018-10-07T22:29:46.154Z,10.70
2018-10-07T22:34:26.089Z,10.80
2018-10-07T22:39:07.824Z,10.80
2018-10-07T22:43:47.899Z,10.70
2018-10-07T22:48:27.967Z,10.50
2018-10-07T22:53:07.967Z,10.40
2018-10-07T22:57:47.677Z,10.30
2018-10-07T23:02:27.741Z,10.30
2018-10-07T23:07:08.693Z,10.20
2018-10-07T23:11:49.612Z,10.20
2018-10-07T23:16:30.256Z,10.10
2018-10-07T23:21:10.028Z,10.10
2018-10-07T23:25:50.638Z,10.10
2018-10-07T23:30:30.701Z,10.00
2018-10-07T23:35:11.279Z,10.00
2018-10-07T23:39:51.232Z,9.90
2018-10-07T23:44:31.735Z,9.80
2018-10-07T23:49:12.096Z,9.80
2018-10-07T23:53:52.908Z,9.60
2018-10-07T23:58:32.757Z,9.50
